Аэропорт: Ханты-Мансийск. Ханты-Мансийск

ICAO: USHH

METAR:
2020-06-01 02:00:00
USHH 010200Z 07002MPS 9999 SCT028 10/04 Q1012 R06/010060 NOSIG
METAR:
2020-05-31 22:54:00
TAF USHH 312254Z 0100/0124 04003G08MPS 9999 BKN020 TEMPO 0100/0103 5000 BR FEW004 BKN016 BECMG 0102/0103 08003G10MPS TEMPO 0106/0109 6000 -SHRA FEW004 BKN016CB